This is the latest recevied weather packets stored in our database for station/object CA2RRL-10. If no packets are shown the sender has not sent any weather packets the latest 10 day(s).
| Time | Temp. | Humidity | Pressure | Rain* | Wind** | Luminosity | Snow |
|---|---|---|---|---|---|---|---|
| 1777934021 | 22.22° C | 22% | 1028.2 hPa | - | - | - | - |
| 1777933121 | 22.78° C | 20% | 1028 hPa | - | - | - | - |
| 1777932221 | 23.33° C | 20% | 1028 hPa | - | - | - | - |
| 1777931321 | 24.44° C | 19% | 1027.9 hPa | - | - | - | - |
| 1777930421 | 24.44° C | 18% | 1027.9 hPa | - | - | - | - |
| 1777929520 | 25° C | 18% | 1027.8 hPa | - | - | - | - |
| 1777928620 | 25.56° C | 17% | 1027.7 hPa | - | - | - | - |
| 1777927720 | 26.11° C | 15% | 1027.6 hPa | - | - | - | - |
| 1777926820 | 26.67° C | 14% | 1027.5 hPa | - | - | - | - |
| 1777925920 | 26.67° C | 14% | 1027.4 hPa | - | - | - | - |
| 1777925020 | 27.22° C | 13% | 1027.2 hPa | - | - | - | - |
| 1777924120 | 27.78° C | 13% | 1027.4 hPa | - | - | - | - |
| 1777923220 | 28.33° C | 14% | 1027.5 hPa | - | - | - | - |
| 1777922320 | 28.33° C | 14% | 1027.6 hPa | - | - | - | - |
| 1777921420 | 28.89° C | 13% | 1027.8 hPa | - | - | - | - |
| 1777920520 | 28.89° C | 13% | 1027.9 hPa | - | - | - | - |
| 1777919619 | 28.89° C | 13% | 1028.1 hPa | - | - | - | - |
| 1777918719 | 28.89° C | 12% | 1028.2 hPa | - | - | - | - |
| 1777917819 | 28.89° C | 13% | 1028.4 hPa | - | - | - | - |
| 1777916919 | 28.33° C | 14% | 1028.7 hPa | - | - | - | - |
| 1777916019 | 28.33° C | 16% | 1029 hPa | - | - | - | - |
| 1777915119 | 27.78° C | 17% | 1029.4 hPa | - | - | - | - |
| 1777914219 | 27.22° C | 17% | 1029.5 hPa | - | - | - | - |
| 1777913319 | 26.11° C | 19% | 1029.7 hPa | - | - | - | - |
| 1777912419 | 25.56° C | 20% | 1029.8 hPa | - | - | - | - |
* Rain since midnight (hover to see other rain measurements)
** Current wind speed in m/s (hover to see current wind gust speed)